Londerzeel, Belgium
Current Conditions -  °F | °C
As of 11:20 AM on Sunday 21 Dec 2014 (Local Time) from EBBR Reporting Station
Broken Clouds Broken Clouds  
Wind Chill:   Ceiling: 2500
Heat Index:   Visibility: 6mi
Dew Point:   Wind: 13mph
Humidity: 81%   Direction: 240°WSW
Pressure: 30.42"   Gusts: NA
Location:  51°N, 4.3°E
Report Text: EBBR 211020Z 24011KT 9999 BKN025 07/04 Q1030 NOSIG
Loading
Personal Weather Stations






























Interactive Weather Map New forecast layout! Learn more

10-Day Weather Forecast

Advertisements
Track Severe Weather on mobile